Time;durP1;ratioP1;P1;durP2;ratioP2;P2;SDS_P1;SDS_P2;PMS_P1;PMS_P2;Temp;Humidity;BMP_temperature;BMP_pressure;BME280_temperature;BME280_humidity;BME280_pressure;Samples;Min_cycle;Max_cycle;Signal;HPM_P1;HPM_P2
2023/08/07 00:01:44;;;;;;;4.78;2.00;;;;;;;15.01;66.24;100395.31;4160175;28;20486;-66
2023/08/07 00:03:47;;;;;;;4.30;1.67;;;;;;;15.00;65.87;100397.03;4179234;28;20456;-66
2023/08/07 00:05:51;;;;;;;6.80;1.67;;;;;;;14.97;65.45;100397.06;4175331;28;20044;-66
2023/08/07 00:07:54;;;;;;;7.93;2.10;;;;;;;14.97;65.33;100398.81;4143916;28;20119;-66
2023/08/07 00:10:00;;;;;;;5.32;1.73;;;;;;;15.00;65.54;100398.81;4178123;28;20079;-66
2023/08/07 00:12:04;;;;;;;3.88;1.50;;;;;;;15.06;65.66;100403.13;4178870;28;20049;-66
2023/08/07 00:14:08;;;;;;;6.22;1.95;;;;;;;15.04;65.65;100399.66;4178493;28;20059;-66
2023/08/07 00:16:11;;;;;;;4.95;1.77;;;;;;;14.99;64.58;100395.28;4160248;28;20132;-66
2023/08/07 00:18:14;;;;;;;7.90;2.00;;;;;;;14.97;64.71;100399.69;4175348;28;20029;-66
2023/08/07 00:20:17;;;;;;;7.85;2.10;;;;;;;14.98;64.18;100397.91;4173691;28;20044;-66
2023/08/07 00:22:20;;;;;;;5.55;1.90;;;;;;;14.95;64.52;100396.22;4141699;28;20084;-66
2023/08/07 00:24:23;;;;;;;6.93;2.42;;;;;;;14.88;64.92;100393.59;4175478;28;20029;-66
2023/08/07 00:26:27;;;;;;;7.38;1.88;;;;;;;14.76;64.89;100400.66;4179528;28;20033;-66
2023/08/07 00:28:30;;;;;;;5.05;2.20;;;;;;;14.79;65.14;100399.75;4175770;28;20376;-66
2023/08/07 00:30:34;;;;;;;4.80;1.77;;;;;;;14.82;63.90;100397.13;4158055;28;20045;-66
2023/08/07 00:32:37;;;;;;;4.78;1.80;;;;;;;14.82;64.40;100395.41;4154418;28;20280;-66
2023/08/07 00:34:41;;;;;;;8.90;2.38;;;;;;;14.83;64.30;100402.38;4160365;28;20045;-66
2023/08/07 00:36:44;;;;;;;3.85;1.48;;;;;;;14.82;65.07;100394.50;4160748;28;20418;-66
2023/08/07 00:38:47;;;;;;;7.85;1.80;;;;;;;14.83;64.00;100402.38;4137300;28;20050;-66
2023/08/07 00:40:49;;;;;;;5.75;1.67;;;;;;;14.83;64.05;100401.47;4160838;28;20037;-66
2023/08/07 00:42:54;;;;;;;2.92;1.15;;;;;;;14.91;64.17;100404.94;4158576;28;20057;-66
2023/08/07 00:44:56;;;;;;;5.35;1.50;;;;;;;14.90;63.35;100403.19;4177559;28;20475;-66
2023/08/07 00:46:59;;;;;;;2.53;1.55;;;;;;;14.96;64.02;100399.69;4159947;28;20351;-65
2023/08/07 00:49:03;;;;;;;5.40;1.83;;;;;;;14.94;63.61;100401.47;4157614;28;20041;-66
2023/08/07 00:51:07;;;;;;;4.10;1.80;;;;;;;14.88;63.44;100397.13;4177545;28;20041;-66
2023/08/07 00:53:10;;;;;;;4.63;1.67;;;;;;;14.82;63.79;100405.88;4160968;28;20586;-66
2023/08/07 00:55:13;;;;;;;5.85;2.22;;;;;;;14.81;63.86;100405.88;4159553;28;20037;-67
2023/08/07 00:57:17;;;;;;;7.55;2.25;;;;;;;14.87;64.06;100399.75;4159693;28;20053;-66
2023/08/07 00:59:22;;;;;;;8.20;1.75;;;;;;;14.81;63.92;100398.88;4141757;28;20407;-66
2023/08/07 01:01:25;;;;;;;6.20;1.88;;;;;;;14.81;63.53;100408.50;4143851;28;20049;-66
2023/08/07 01:03:28;;;;;;;6.95;2.00;;;;;;;14.81;63.47;100409.34;4155600;28;20569;-66
2023/08/07 01:05:31;;;;;;;6.10;1.70;;;;;;;14.82;63.55;100407.59;4156417;28;20034;-66
2023/08/07 01:07:34;;;;;;;5.28;1.90;;;;;;;14.80;63.88;100409.34;4143230;28;20100;-66
2023/08/07 01:09:37;;;;;;;6.57;1.75;;;;;;;14.86;63.22;100418.94;4176592;28;20047;-67
2023/08/07 01:11:46;;;;;;;6.00;2.45;;;;;;;14.84;63.51;100411.09;4160313;28;20041;-67
2023/08/07 01:13:57;;;;;;;4.97;1.98;;;;;;;14.83;63.74;100396.25;4140724;28;20128;-67
2023/08/07 01:16:07;;;;;;;3.30;1.40;;;;;;;14.84;63.38;100409.34;4172743;28;20041;-67
2023/08/07 01:18:11;;;;;;;5.25;1.60;;;;;;;14.81;63.68;100408.50;4160009;28;20337;-67
2023/08/07 01:20:13;;;;;;;4.80;1.55;;;;;;;14.77;63.29;100401.53;4159362;28;20136;-67
2023/08/07 01:22:18;;;;;;;4.75;1.73;;;;;;;14.80;62.88;100410.22;4176052;28;20071;-67
2023/08/07 01:24:21;;;;;;;9.43;1.80;;;;;;;14.84;63.41;100406.72;4160112;28;20033;-67
2023/08/07 01:26:24;;;;;;;7.60;1.90;;;;;;;14.86;63.17;100408.47;4157424;28;20363;-67
2023/08/07 01:28:29;;;;;;;5.85;1.67;;;;;;;14.87;62.92;100407.59;4160182;28;20499;-67
2023/08/07 01:30:37;;;;;;;3.50;1.80;;;;;;;14.81;63.06;100409.34;4160592;28;20038;-67
2023/08/07 01:32:51;;;;;;;6.15;1.60;;;;;;;14.86;63.44;100416.31;4160321;28;20099;-66
2023/08/07 01:34:56;;;;;;;5.25;1.65;;;;;;;14.86;62.98;100411.94;4160440;28;20092;-67
2023/08/07 01:37:01;;;;;;;7.00;1.90;;;;;;;14.83;62.74;100409.34;4155195;28;20049;-66
2023/08/07 01:39:06;;;;;;;;;;;;;;;14.70;62.75;100402.41;4177891;28;20041;-68
2023/08/07 01:41:09;;;;;;;5.70;1.75;;;;;;;14.68;63.34;100406.78;4149537;28;19925;-67
2023/08/07 01:43:12;;;;;;;6.30;2.25;;;;;;;14.72;63.23;100408.50;4186096;28;20071;-67
2023/08/07 01:45:23;;;;;;;7.35;1.95;;;;;;;14.78;63.10;100408.50;4142449;28;20038;-67
2023/08/07 01:47:26;;;;;;;7.80;2.42;;;;;;;14.71;62.63;100409.41;4171522;28;20128;-67
2023/08/07 01:49:29;;;;;;;3.08;1.40;;;;;;;14.70;63.33;100412.88;4160917;28;20065;-67
2023/08/07 01:51:32;;;;;;;4.10;1.45;;;;;;;14.73;62.58;100424.19;4138744;28;20504;-67
2023/08/07 01:53:35;;;;;;;5.85;1.88;;;;;;;14.63;62.71;100423.38;4175254;28;20033;-67
2023/08/07 01:55:38;;;;;;;6.30;1.83;;;;;;;14.66;63.23;100420.75;4161911;28;20045;-67
2023/08/07 01:57:41;;;;;;;5.40;1.73;;;;;;;14.70;62.57;100426.81;4161440;28;20040;-67
2023/08/07 01:59:44;;;;;;;6.10;1.92;;;;;;;14.74;61.94;100422.47;4163338;28;20128;-67
2023/08/07 02:01:47;;;;;;;9.05;1.45;;;;;;;14.69;63.02;100430.34;4163012;28;20081;-67
2023/08/07 02:03:50;;;;;;;5.13;1.83;;;;;;;14.73;62.06;100425.94;4161539;28;20042;-66
2023/08/07 02:05:54;;;;;;;5.03;1.80;;;;;;;14.68;62.42;100425.97;4181041;28;20167;-67
2023/08/07 02:07:58;;;;;;;8.10;1.87;;;;;;;14.67;62.06;100419.00;4180374;28;20041;-66
2023/08/07 02:10:01;;;;;;;3.50;1.42;;;;;;;14.71;62.96;100423.34;4177844;28;20048;-67
2023/08/07 02:12:07;;;;;;;4.80;2.38;;;;;;;14.72;62.92;100421.59;4162473;28;20403;-67
2023/08/07 02:14:10;;;;;;;2.92;1.40;;;;;;;14.65;62.29;100428.59;4175778;28;20041;-67
2023/08/07 02:16:13;;;;;;;9.27;2.45;;;;;;;14.65;62.52;100429.47;4162944;28;20045;-67
2023/08/07 02:18:16;;;;;;;5.22;1.65;;;;;;;14.65;62.60;100423.38;4145932;28;20132;-67
2023/08/07 02:20:20;;;;;;;4.75;1.92;;;;;;;14.67;62.44;100432.06;4149701;23;20042;-66
2023/08/07 02:22:23;;;;;;;5.25;1.48;;;;;;;14.63;62.06;100428.59;4139180;28;20100;-66
2023/08/07 02:24:26;;;;;;;8.63;2.40;;;;;;;14.66;62.35;100436.44;4141628;28;20040;-65
2023/08/07 02:26:29;;;;;;;6.53;1.90;;;;;;;14.66;62.21;100435.59;4144479;28;20128;-66
2023/08/07 02:28:33;;;;;;;5.20;1.98;;;;;;;14.64;63.05;100435.56;4142947;28;20034;-65
2023/08/07 02:30:36;;;;;;;5.00;1.83;;;;;;;14.68;62.66;100432.97;4141420;28;20445;-65
2023/08/07 02:32:41;;;;;;;4.15;1.60;;;;;;;14.60;62.55;100435.53;4144902;28;20045;-66
2023/08/07 02:34:45;;;;;;;7.97;2.10;;;;;;;14.62;62.98;100442.56;4147084;28;20528;-66
2023/08/07 02:36:47;;;;;;;3.75;1.70;;;;;;;14.60;61.98;100440.78;4145791;28;20476;-65
2023/08/07 02:38:50;;;;;;;6.88;1.90;;;;;;;14.62;62.98;100437.31;4148374;28;20038;-65
2023/08/07 02:40:53;;;;;;;7.82;2.00;;;;;;;14.68;62.28;100436.44;4130220;28;20342;-66
2023/08/07 02:42:56;;;;;;;6.15;1.50;;;;;;;14.71;62.09;100432.94;4159518;28;20103;-65
2023/08/07 02:45:00;;;;;;;9.48;2.00;;;;;;;14.68;62.92;100443.44;4152442;28;20596;-65
2023/08/07 02:47:04;;;;;;;7.07;2.85;;;;;;;14.68;62.48;100440.81;4161556;28;20060;-65
2023/08/07 02:49:06;;;;;;;6.85;1.88;;;;;;;14.64;62.74;100442.56;4146017;28;20048;-65
2023/08/07 02:51:08;;;;;;;4.95;1.90;;;;;;;14.68;62.43;100443.44;4129960;28;20258;-65
2023/08/07 02:53:12;;;;;;;7.18;2.35;;;;;;;14.69;62.08;100445.16;4145549;28;20038;-65
2023/08/07 02:55:15;;;;;;;6.20;2.28;;;;;;;14.69;62.40;100437.31;4143783;28;20038;-66
2023/08/07 02:57:18;;;;;;;7.63;1.85;;;;;;;14.64;62.05;100439.94;4144808;28;20044;-65
2023/08/07 02:59:20;;;;;;;5.47;2.13;;;;;;;14.64;62.70;100435.56;4147518;28;20061;-66
2023/08/07 03:01:25;;;;;;;7.57;1.83;;;;;;;14.57;62.31;100431.22;4147409;28;20038;-66
2023/08/07 03:03:27;;;;;;;5.03;1.90;;;;;;;14.55;61.87;100427.72;4145617;28;20500;-66
2023/08/07 03:05:30;;;;;;;5.63;1.80;;;;;;;14.49;62.49;100427.75;4145055;28;20073;-65
2023/08/07 03:07:33;;;;;;;9.02;2.20;;;;;;;14.53;62.73;100431.19;4170246;28;20029;-63
2023/08/07 03:09:35;;;;;;;7.25;2.00;;;;;;;14.47;63.18;100435.59;4143404;28;20030;-65
2023/08/07 03:11:38;;;;;;;6.18;2.22;;;;;;;14.50;62.81;100434.72;4146240;28;20038;-67
2023/08/07 03:13:42;;;;;;;5.38;1.50;;;;;;;14.56;62.38;100432.09;4143919;28;20041;-64
2023/08/07 03:15:44;;;;;;;4.85;2.20;;;;;;;14.57;62.22;100436.44;4144595;28;20106;-64
2023/08/07 03:17:48;;;;;;;7.07;1.90;;;;;;;14.49;62.72;100438.19;4161119;28;20406;-64
2023/08/07 03:19:51;;;;;;;6.55;2.00;;;;;;;14.47;62.72;100434.69;4145483;28;20080;-64
2023/08/07 03:21:54;;;;;;;8.77;1.67;;;;;;;14.51;62.27;100436.44;4143427;28;20041;-64
2023/08/07 03:23:56;;;;;;;5.90;1.88;;;;;;;14.55;62.84;100426.84;4142980;28;20068;-65
2023/08/07 03:26:04;;;;;;;4.68;1.70;;;;;;;14.56;62.23;100436.44;4176249;28;20506;-65
2023/08/07 03:28:20;;;;;;;7.13;1.85;;;;;;;14.55;63.13;100430.34;4126750;28;20299;-65
2023/08/07 03:30:23;;;;;;;6.63;1.90;;;;;;;14.47;62.78;100439.94;4146241;28;20682;-65
2023/08/07 03:32:27;;;;;;;5.25;2.30;;;;;;;14.52;62.79;100443.44;4145240;28;20754;-65
2023/08/07 03:34:32;;;;;;;6.63;1.77;;;;;;;14.56;62.40;100449.50;4145570;28;20037;-65
2023/08/07 03:36:35;;;;;;;5.82;2.38;;;;;;;14.55;62.68;100456.50;4143981;28;20041;-65
2023/08/07 03:38:37;;;;;;;7.97;2.03;;;;;;;14.56;62.32;100453.00;4125310;28;20041;-65
2023/08/07 03:40:40;;;;;;;9.00;2.28;;;;;;;14.58;62.96;100446.00;4139532;28;20069;-65
2023/08/07 03:42:44;;;;;;;6.00;1.97;;;;;;;14.52;62.78;100448.66;4143214;28;20794;-65
2023/08/07 03:44:47;;;;;;;4.60;1.75;;;;;;;14.54;62.58;100441.66;4143691;28;20048;-65
2023/08/07 03:46:50;;;;;;;8.07;2.55;;;;;;;14.53;63.10;100447.78;4128029;28;20057;-66
2023/08/07 03:48:58;;;;;;;8.00;1.85;;;;;;;14.48;63.84;100452.16;4143832;28;20411;-65
2023/08/07 03:51:05;;;;;;;5.65;2.15;;;;;;;14.51;64.07;100449.53;4144656;28;20080;-65
2023/08/07 03:53:13;;;;;;;5.72;1.83;;;;;;;14.47;64.05;100446.06;4142271;28;20067;-65
2023/08/07 03:55:19;;;;;;;6.68;1.98;;;;;;;14.48;63.90;100454.75;4141983;28;20045;-65
2023/08/07 03:57:22;;;;;;;10.95;1.83;;;;;;;14.51;63.58;100456.50;4128097;28;20201;-65
2023/08/07 03:59:25;;;;;;;6.53;2.35;;;;;;;14.50;63.97;100453.03;4144373;28;20547;-66
2023/08/07 04:01:28;;;;;;;6.00;2.00;;;;;;;14.53;63.59;100460.88;4142658;28;20063;-65
2023/08/07 04:03:31;;;;;;;5.78;2.30;;;;;;;14.52;63.62;100463.50;4145352;28;20125;-66
2023/08/07 04:05:35;;;;;;;7.95;2.05;;;;;;;14.44;63.84;100461.75;4143695;28;20044;-65
2023/08/07 04:07:39;;;;;;;5.85;1.98;;;;;;;14.42;63.55;100453.03;4141643;28;20081;-65
2023/08/07 04:09:42;;;;;;;6.55;2.90;;;;;;;14.45;64.43;100454.78;4141019;28;20518;-65
2023/08/07 04:11:47;;;;;;;6.20;2.08;;;;;;;14.44;64.23;100455.63;4128138;28;20072;-66
2023/08/07 04:13:50;;;;;;;5.45;2.08;;;;;;;14.47;64.73;100453.00;4146307;28;20038;-66
2023/08/07 04:15:52;;;;;;;8.60;2.05;;;;;;;14.49;63.68;100464.34;4128762;28;20072;-66
2023/08/07 04:17:55;;;;;;;5.93;1.88;;;;;;;14.43;63.78;100456.53;4143079;28;20500;-66
2023/08/07 04:19:58;;;;;;;8.43;2.10;;;;;;;14.36;64.39;100462.66;4138148;28;20049;-65
2023/08/07 04:22:00;;;;;;;6.13;1.90;;;;;;;14.34;64.28;100456.53;4144041;28;20069;-65
2023/08/07 04:24:10;;;;;;;5.18;2.05;;;;;;;14.35;63.74;100458.28;4144775;28;20034;-66
2023/08/07 04:26:14;;;;;;;4.18;1.60;;;;;;;14.32;63.96;100462.66;4140864;28;20496;-65
2023/08/07 04:28:17;;;;;;;9.63;1.90;;;;;;;14.35;63.92;100456.53;4139322;28;20476;-65
2023/08/07 04:30:20;;;;;;;10.20;2.08;;;;;;;14.36;63.83;100467.88;4142835;28;20052;-65
2023/08/07 04:32:22;;;;;;;5.82;2.33;;;;;;;14.32;63.80;100467.88;4143026;28;20057;-65
2023/08/07 04:34:28;;;;;;;8.65;2.92;;;;;;;14.32;63.30;100462.66;4145557;28;20507;-65
2023/08/07 04:36:31;;;;;;;8.40;2.15;;;;;;;14.34;63.51;100475.72;4141436;28;20088;-66
2023/08/07 04:38:34;;;;;;;4.28;1.80;;;;;;;14.41;62.93;100468.72;4145899;28;20133;-66
2023/08/07 04:40:38;;;;;;;6.28;2.28;;;;;;;14.35;63.23;100482.69;4141947;28;20033;-65
2023/08/07 04:42:41;;;;;;;6.80;1.98;;;;;;;14.32;63.45;100473.13;4145400;28;20084;-65
2023/08/07 04:44:44;;;;;;;7.95;2.28;;;;;;;14.30;63.09;100485.31;4141310;28;20514;-66
2023/08/07 04:46:46;;;;;;;7.00;1.92;;;;;;;14.37;63.19;100490.50;4144182;28;20044;-65
2023/08/07 04:48:48;;;;;;;3.60;1.58;;;;;;;14.42;63.57;100486.16;4145338;28;20045;-66
2023/08/07 04:50:51;;;;;;;4.35;1.70;;;;;;;14.47;63.26;100490.53;4145363;28;20041;-65
2023/08/07 04:52:54;;;;;;;6.30;1.73;;;;;;;14.48;63.47;100488.78;4145526;28;20044;-66
2023/08/07 04:54:57;;;;;;;8.27;2.17;;;;;;;14.47;62.33;100492.25;4143348;28;20038;-65
2023/08/07 04:57:02;;;;;;;8.00;2.10;;;;;;;14.46;62.86;100495.75;4144547;28;20034;-65
2023/08/07 04:59:05;;;;;;;4.93;1.55;;;;;;;14.45;62.31;100499.25;4143080;28;20042;-65
2023/08/07 05:01:08;;;;;;;4.93;1.88;;;;;;;14.48;63.07;100499.22;4144415;28;20042;-65
2023/08/07 05:03:12;;;;;;;5.32;1.63;;;;;;;14.50;63.05;100497.50;4144934;28;20133;-65
2023/08/07 05:05:15;;;;;;;4.80;1.85;;;;;;;14.50;62.52;100489.66;4146034;28;20045;-65
2023/08/07 05:07:18;;;;;;;7.95;2.00;;;;;;;14.56;62.90;100500.09;4141483;28;20038;-66
2023/08/07 05:09:21;;;;;;;5.10;1.88;;;;;;;14.58;62.83;100494.88;4143410;28;20045;-65
2023/08/07 05:11:24;;;;;;;5.65;1.95;;;;;;;14.53;62.80;100496.59;4143764;28;20057;-65
2023/08/07 05:13:28;;;;;;;9.75;2.28;;;;;;;14.58;62.44;100498.34;4144081;28;20476;-65
2023/08/07 05:15:31;;;;;;;5.15;1.80;;;;;;;14.65;63.20;100501.88;4144763;28;20041;-65
2023/08/07 05:17:33;;;;;;;6.82;1.95;;;;;;;14.70;62.49;100502.72;4145435;28;20033;-65
2023/08/07 05:19:36;;;;;;;6.82;1.73;;;;;;;14.69;62.55;100506.22;4144245;28;20081;-66
2023/08/07 05:21:39;;;;;;;6.38;2.08;;;;;;;14.53;62.42;100502.72;4144609;28;20044;-65
2023/08/07 05:23:41;;;;;;;6.82;1.60;;;;;;;14.56;62.39;100500.09;4141205;28;20479;-65
2023/08/07 05:25:46;;;;;;;4.68;2.08;;;;;;;14.56;63.24;100510.56;4142085;28;20133;-65
2023/08/07 05:27:51;;;;;;;4.93;2.05;;;;;;;14.55;62.45;100516.66;4140737;28;20045;-65
2023/08/07 05:29:55;;;;;;;7.03;2.17;;;;;;;14.56;62.50;100509.69;4144718;28;20033;-65
2023/08/07 05:31:58;;;;;;;5.90;2.00;;;;;;;14.53;63.18;100517.53;4144975;28;20095;-62
2023/08/07 05:34:01;;;;;;;6.38;2.67;;;;;;;14.53;62.42;100528.88;4146889;28;20088;-65
2023/08/07 05:36:06;;;;;;;5.45;1.90;;;;;;;14.50;62.98;100523.66;4134799;28;20070;-64
2023/08/07 05:38:08;;;;;;;7.28;2.28;;;;;;;14.55;63.36;100526.28;4142945;28;20403;-67
2023/08/07 05:40:12;;;;;;;8.43;2.35;;;;;;;14.52;62.40;100534.13;4150826;28;20074;-62
2023/08/07 05:42:15;;;;;;;7.20;1.67;;;;;;;14.53;62.95;100535.84;4148655;28;20050;-62
2023/08/07 05:44:18;;;;;;;6.78;1.83;;;;;;;14.56;63.00;100530.59;4145618;28;20134;-63
2023/08/07 05:46:22;;;;;;;7.05;1.90;;;;;;;14.53;62.43;100518.44;4138771;28;20077;-63
2023/08/07 05:48:25;;;;;;;5.38;1.55;;;;;;;14.51;62.89;100532.38;4141392;28;20049;-63
2023/08/07 05:50:28;;;;;;;5.57;1.75;;;;;;;14.59;62.35;100528.00;4145105;28;20431;-65
2023/08/07 05:52:31;;;;;;;2.72;1.65;;;;;;;14.68;62.19;100537.63;4141699;28;20041;-65
2023/08/07 05:54:34;;;;;;;6.35;1.70;;;;;;;14.73;61.62;100531.47;4144432;28;20048;-66
2023/08/07 05:56:38;;;;;;;5.38;2.30;;;;;;;14.74;61.70;100527.16;4144787;28;20061;-67
2023/08/07 05:58:41;;;;;;;5.22;1.80;;;;;;;14.75;61.29;100534.13;4146602;28;20068;-65
2023/08/07 06:00:44;;;;;;;6.53;1.85;;;;;;;14.72;61.37;100544.56;4148924;28;20034;-65
2023/08/07 06:02:48;;;;;;;4.68;2.08;;;;;;;14.75;61.85;100550.69;4149216;28;20117;-62
2023/08/07 06:04:52;;;;;;;5.00;1.65;;;;;;;14.76;61.20;100541.97;4148099;28;20439;-62
2023/08/07 06:06:55;;;;;;;5.55;2.50;;;;;;;14.77;60.80;100545.47;4150218;28;20110;-62
2023/08/07 06:08:58;;;;;;;10.77;2.20;;;;;;;14.75;61.55;100544.59;4150289;28;20038;-63
2023/08/07 06:11:04;;;;;;;5.40;2.05;;;;;;;14.76;61.13;100547.22;4150435;28;20096;-62
2023/08/07 06:13:08;;;;;;;8.93;2.17;;;;;;;14.80;60.97;100559.38;4150428;28;20092;-62
2023/08/07 06:15:16;;;;;;;3.60;1.77;;;;;;;14.81;60.55;100550.69;4150059;28;20053;-62
2023/08/07 06:17:19;;;;;;;4.43;1.77;;;;;;;14.82;60.73;100546.31;4149544;28;20510;-62
2023/08/07 06:19:23;;;;;;;6.93;1.95;;;;;;;14.82;60.57;100554.16;4148633;28;20116;-62
2023/08/07 06:21:37;;;;;;;9.10;2.25;;;;;;;14.90;60.35;100559.41;4147250;28;20567;-62
2023/08/07 06:23:39;;;;;;;3.70;1.80;;;;;;;14.89;60.00;100552.41;4142678;28;20038;-62
2023/08/07 06:25:43;;;;;;;4.47;1.60;;;;;;;14.84;60.27;100553.28;4140698;28;20046;-62
2023/08/07 06:27:46;;;;;;;4.27;2.20;;;;;;;14.80;60.56;100556.78;4132335;28;20050;-62
2023/08/07 06:29:49;;;;;;;4.28;2.03;;;;;;;14.77;60.75;100548.94;4144541;28;20041;-62
2023/08/07 06:31:52;;;;;;;7.15;2.15;;;;;;;14.81;60.74;100566.38;4136124;28;20081;-62
2023/08/07 06:33:55;;;;;;;5.88;1.80;;;;;;;14.82;60.31;100567.25;4133816;28;20041;-62
2023/08/07 06:35:59;;;;;;;4.95;2.33;;;;;;;14.87;60.06;100560.25;4144855;28;20476;-62
2023/08/07 06:38:02;;;;;;;7.82;2.08;;;;;;;14.89;59.87;100561.13;4149725;28;20049;-62
2023/08/07 06:40:07;;;;;;;5.47;2.35;;;;;;;14.84;59.93;100566.38;4149562;28;20042;-62
2023/08/07 06:42:09;;;;;;;3.90;1.85;;;;;;;14.90;60.18;100565.50;4149202;28;20048;-62
2023/08/07 06:44:12;;;;;;;5.20;1.70;;;;;;;14.94;60.63;100561.13;4140286;28;20088;-62
2023/08/07 06:46:15;;;;;;;6.35;1.88;;;;;;;14.92;60.28;100562.88;4146993;28;20071;-62
2023/08/07 06:48:18;;;;;;;9.90;2.03;;;;;;;14.91;60.72;100569.88;4118300;28;20097;-62
2023/08/07 06:50:21;;;;;;;3.38;1.52;;;;;;;14.93;60.69;100573.34;4132507;28;20424;-62
2023/08/07 06:52:24;;;;;;;5.63;1.70;;;;;;;14.93;61.24;100591.66;4143005;28;20526;-62
2023/08/07 06:54:27;;;;;;;5.43;1.85;;;;;;;14.95;61.37;100583.81;4146353;28;21691;-62
2023/08/07 06:56:30;;;;;;;4.55;1.52;;;;;;;14.97;60.72;100588.16;4146351;28;20080;-62
2023/08/07 06:58:33;;;;;;;4.05;1.65;;;;;;;14.91;60.28;100592.53;4143793;28;20480;-65
2023/08/07 07:00:36;;;;;;;4.05;1.83;;;;;;;14.92;60.61;100592.56;4144379;28;20034;-64
2023/08/07 07:02:39;;;;;;;5.82;1.92;;;;;;;14.97;60.98;100592.53;4145780;28;20050;-64
2023/08/07 07:04:41;;;;;;;5.57;2.10;;;;;;;14.91;60.81;100597.75;4144020;28;20520;-63
2023/08/07 07:06:43;;;;;;;3.50;1.73;;;;;;;14.94;60.51;100606.50;4145872;28;20030;-64
2023/08/07 07:08:48;;;;;;;8.13;1.80;;;;;;;14.92;60.65;100595.19;4144496;28;20065;-67
2023/08/07 07:10:51;;;;;;;6.80;2.10;;;;;;;14.89;60.97;100596.91;4145546;28;20045;-64
2023/08/07 07:12:53;;;;;;;8.13;1.83;;;;;;;14.90;61.54;100594.28;4145751;28;20088;-64
2023/08/07 07:14:56;;;;;;;6.65;1.75;;;;;;;14.89;61.11;100599.53;4140281;28;20081;-62
2023/08/07 07:16:59;;;;;;;4.40;1.73;;;;;;;14.95;61.43;100605.63;4128843;28;20080;-62
2023/08/07 07:19:02;;;;;;;3.08;1.70;;;;;;;14.94;61.71;100603.03;4141277;28;20415;-63
2023/08/07 07:21:05;;;;;;;5.50;2.00;;;;;;;14.97;62.27;100601.25;4143058;28;20053;-62
2023/08/07 07:23:08;;;;;;;5.55;2.00;;;;;;;14.94;61.99;100603.03;4147553;28;20038;-62
2023/08/07 07:25:12;;;;;;;4.78;2.20;;;;;;;14.94;62.49;100611.75;4149045;28;20056;-62
2023/08/07 07:27:15;;;;;;;4.68;1.48;;;;;;;14.94;63.29;100603.88;4147790;28;20062;-62
2023/08/07 07:29:18;;;;;;;6.63;1.73;;;;;;;14.93;63.38;100607.38;4147799;28;20049;-62
2023/08/07 07:31:21;;;;;;;6.55;2.10;;;;;;;14.93;63.19;100614.38;4139520;28;20125;-62
2023/08/07 07:33:24;;;;;;;4.63;1.60;;;;;;;14.86;63.60;100613.47;4147993;28;20042;-62
2023/08/07 07:35:27;;;;;;;3.80;1.75;;;;;;;14.83;64.23;100616.09;4149113;28;20052;-62
2023/08/07 07:37:31;;;;;;;6.07;2.03;;;;;;;14.80;63.91;100623.97;4148880;28;20077;-62
2023/08/07 07:39:35;;;;;;;4.63;2.10;;;;;;;14.72;64.25;100623.09;4148976;28;20069;-62
2023/08/07 07:41:39;;;;;;;5.72;1.98;;;;;;;14.77;64.09;100626.59;4148421;28;20070;-62
2023/08/07 07:43:42;;;;;;;8.50;2.13;;;;;;;14.69;63.89;100626.59;4129035;28;20035;-63
2023/08/07 07:45:46;;;;;;;9.88;2.13;;;;;;;14.64;64.13;100629.19;4136335;28;20104;-63
2023/08/07 07:47:49;;;;;;;4.47;2.10;;;;;;;14.64;64.85;100626.56;4148472;28;20042;-62
2023/08/07 07:50:06;;;;;;;4.88;1.80;;;;;;;14.71;64.93;100635.31;4148593;28;20049;-63
2023/08/07 07:52:08;;;;;;;5.05;1.70;;;;;;;14.70;64.98;100636.16;4147616;28;20053;-62
2023/08/07 07:54:11;;;;;;;5.25;1.60;;;;;;;14.76;64.58;100641.44;4143990;28;20065;-62
2023/08/07 07:56:17;;;;;;;3.40;1.65;;;;;;;14.77;64.60;100637.06;4148574;28;20053;-62
2023/08/07 07:58:22;;;;;;;4.15;2.17;;;;;;;14.85;64.97;100632.69;4148437;28;20072;-63
2023/08/07 08:00:26;;;;;;;5.63;2.25;;;;;;;14.88;64.28;100643.16;4135081;28;20057;-62
2023/08/07 08:02:29;;;;;;;5.22;2.33;;;;;;;14.97;64.20;100644.91;4148637;28;20046;-62
2023/08/07 08:04:32;;;;;;;4.15;1.55;;;;;;;14.96;63.80;100649.25;4148515;28;20042;-62
2023/08/07 08:06:35;;;;;;;4.60;2.15;;;;;;;14.98;63.26;100652.75;4147787;28;20121;-62
2023/08/07 08:08:38;;;;;;;10.05;2.00;;;;;;;14.96;63.21;100651.00;4148428;28;20403;-62
2023/08/07 08:10:41;;;;;;;6.45;2.05;;;;;;;14.96;63.90;100654.47;4148520;28;20042;-62
2023/08/07 08:12:44;;;;;;;6.13;2.17;;;;;;;14.98;63.55;100652.75;4148609;28;20042;-62
2023/08/07 08:14:48;;;;;;;7.70;1.77;;;;;;;15.03;63.45;100649.25;4147302;28;20388;-62
2023/08/07 08:16:58;;;;;;;9.63;2.08;;;;;;;15.05;63.54;100658.84;4145737;28;20110;-63
2023/08/07 08:19:02;;;;;;;7.47;1.52;;;;;;;15.05;64.25;100656.22;4141461;28;20065;-64
2023/08/07 08:21:04;;;;;;;7.97;2.00;;;;;;;15.04;63.97;100654.50;4173190;23;20042;-67
2023/08/07 08:23:06;;;;;;;7.47;2.03;;;;;;;15.08;63.83;100658.84;4162181;28;20323;-66
2023/08/07 08:25:11;;;;;;;4.20;2.08;;;;;;;15.07;63.40;100661.44;4161871;28;20045;-68
2023/08/07 08:27:14;;;;;;;;;;;;;;;14.97;63.52;100661.47;4161475;28;20128;-66
2023/08/07 08:29:17;;;;;;;5.60;2.03;;;;;;;14.99;64.17;100674.56;4159932;28;19920;-66
2023/08/07 08:31:23;;;;;;;2.63;1.60;;;;;;;14.99;63.67;100669.31;4159815;28;20128;-66
2023/08/07 08:33:28;;;;;;;7.93;2.05;;;;;;;15.04;63.46;100674.56;4158177;28;20040;-67
2023/08/07 08:35:31;;;;;;;4.82;1.70;;;;;;;15.10;63.73;100675.44;4158022;28;20061;-68
2023/08/07 08:37:34;;;;;;;7.15;2.88;;;;;;;15.16;64.04;100672.81;4161673;28;20045;-68
2023/08/07 08:39:38;;;;;;;2.95;1.90;;;;;;;15.14;63.24;100681.53;4162680;28;20048;-68
2023/08/07 08:41:42;;;;;;;6.63;2.67;;;;;;;15.15;63.40;100686.75;4156150;28;20523;-68
2023/08/07 08:43:47;;;;;;;8.80;2.40;;;;;;;15.25;63.39;100684.16;4156972;28;20056;-67
2023/08/07 08:45:50;;;;;;;5.28;2.35;;;;;;;15.29;63.80;100683.28;4163564;28;20041;-67
2023/08/07 08:48:00;;;;;;;3.78;2.08;;;;;;;15.28;64.33;100682.38;4162932;28;20041;-67
2023/08/07 08:50:07;;;;;;;4.07;1.98;;;;;;;15.23;63.55;100681.53;4164291;28;20045;-67
2023/08/07 08:52:10;;;;;;;5.15;1.77;;;;;;;15.27;64.08;100685.00;4164122;28;20134;-67
2023/08/07 08:54:14;;;;;;;4.30;1.52;;;;;;;15.29;65.00;100689.38;4163038;28;20050;-66
2023/08/07 08:56:17;;;;;;;5.57;1.83;;;;;;;15.37;64.65;100691.97;4162557;28;20048;-66
2023/08/07 08:58:21;;;;;;;6.15;1.92;;;;;;;15.40;64.65;100696.34;4164145;28;20033;-66
2023/08/07 09:00:25;;;;;;;6.00;2.25;;;;;;;15.42;64.76;100697.19;4162758;28;20041;-66
2023/08/07 09:02:27;;;;;;;;;;;;;;;15.28;65.52;100698.09;4164597;28;20118;-66
2023/08/07 09:04:32;;;;;;;8.25;2.25;;;;;;;15.39;66.23;100700.72;4163768;28;19944;-66
2023/08/07 09:06:35;;;;;;;5.28;1.90;;;;;;;15.40;65.71;100701.59;4155590;28;20034;-66
2023/08/07 09:08:41;;;;;;;6.97;2.35;;;;;;;15.39;66.64;100700.72;4161095;28;20506;-66
2023/08/07 09:10:44;;;;;;;6.72;2.15;;;;;;;15.42;66.18;100699.81;4157257;28;20033;-66
2023/08/07 09:12:55;;;;;;;9.20;2.20;;;;;;;15.47;67.14;100698.06;4151007;28;20084;-66
2023/08/07 09:14:59;;;;;;;5.50;2.03;;;;;;;15.50;68.20;100700.69;4152377;28;20034;-67
2023/08/07 09:17:02;;;;;;;8.85;2.42;;;;;;;15.51;68.44;100700.69;4147528;28;20041;-66
2023/08/07 09:19:04;;;;;;;5.25;2.53;;;;;;;15.53;69.18;100703.28;4154569;28;20037;-66
2023/08/07 09:21:09;;;;;;;5.20;2.00;;;;;;;15.50;67.25;100698.06;4163833;28;20132;-66
2023/08/07 09:23:12;;;;;;;9.45;2.35;;;;;;;15.45;67.91;100700.69;4163792;28;20041;-66
2023/08/07 09:25:15;;;;;;;6.38;2.03;;;;;;;15.46;68.50;100704.19;4162832;28;20037;-67
2023/08/07 09:27:18;;;;;;;4.25;1.88;;;;;;;15.42;68.97;100700.72;4162505;28;20128;-67
2023/08/07 09:29:23;;;;;;;9.27;2.55;;;;;;;15.46;69.26;100698.94;4163309;28;20040;-68
2023/08/07 09:31:27;;;;;;;10.45;2.75;;;;;;;15.41;69.64;100708.56;4134180;28;20057;-67
2023/08/07 09:33:31;;;;;;;5.32;2.08;;;;;;;15.33;68.25;100716.41;4161906;28;20045;-67
2023/08/07 09:35:34;;;;;;;4.57;2.20;;;;;;;15.30;68.25;100713.81;4163960;28;20065;-67
2023/08/07 09:37:38;;;;;;;6.03;1.98;;;;;;;15.34;68.75;100718.19;4156484;28;20073;-67